sensor_id;sensor_type;location;lat;lon;timestamp;P1;durP1;ratioP1;P2;durP2;ratioP2
10170;SDS011;5127;50.922;6.988;2022-11-06T00:01:37;4.60;;;3.67;;
10170;SDS011;5127;50.922;6.988;2022-11-06T00:04:04;6.13;;;4.00;;
10170;SDS011;5127;50.922;6.988;2022-11-06T00:06:32;5.23;;;4.20;;
10170;SDS011;5127;50.922;6.988;2022-11-06T00:09:14;4.77;;;3.60;;
10170;SDS011;5127;50.922;6.988;2022-11-06T00:11:44;4.90;;;3.70;;
10170;SDS011;5127;50.922;6.988;2022-11-06T00:14:12;5.87;;;3.57;;
10170;SDS011;5127;50.922;6.988;2022-11-06T00:16:40;5.80;;;3.30;;
10170;SDS011;5127;50.922;6.988;2022-11-06T00:19:08;4.63;;;3.43;;
10170;SDS011;5127;50.922;6.988;2022-11-06T00:21:36;3.00;;;2.80;;
10170;SDS011;5127;50.922;6.988;2022-11-06T00:24:04;6.30;;;3.40;;
10170;SDS011;5127;50.922;6.988;2022-11-06T00:26:33;6.00;;;3.63;;
10170;SDS011;5127;50.922;6.988;2022-11-06T00:29:02;7.37;;;3.53;;
10170;SDS011;5127;50.922;6.988;2022-11-06T00:31:31;5.40;;;3.03;;
10170;SDS011;5127;50.922;6.988;2022-11-06T00:34:01;3.37;;;3.07;;
10170;SDS011;5127;50.922;6.988;2022-11-06T00:36:31;5.47;;;3.10;;
10170;SDS011;5127;50.922;6.988;2022-11-06T00:38:58;4.57;;;3.30;;
10170;SDS011;5127;50.922;6.988;2022-11-06T00:41:26;4.90;;;3.37;;
10170;SDS011;5127;50.922;6.988;2022-11-06T00:43:54;4.33;;;3.10;;
10170;SDS011;5127;50.922;6.988;2022-11-06T00:46:24;3.80;;;2.93;;
10170;SDS011;5127;50.922;6.988;2022-11-06T00:48:52;4.37;;;2.77;;
10170;SDS011;5127;50.922;6.988;2022-11-06T00:51:21;3.00;;;2.60;;
10170;SDS011;5127;50.922;6.988;2022-11-06T00:53:52;5.50;;;2.90;;
10170;SDS011;5127;50.922;6.988;2022-11-06T00:56:20;3.97;;;2.83;;
10170;SDS011;5127;50.922;6.988;2022-11-06T00:58:48;5.57;;;3.23;;
10170;SDS011;5127;50.922;6.988;2022-11-06T01:01:17;5.23;;;2.90;;
10170;SDS011;5127;50.922;6.988;2022-11-06T01:03:47;4.23;;;3.00;;
10170;SDS011;5127;50.922;6.988;2022-11-06T01:06:19;3.40;;;2.90;;
10170;SDS011;5127;50.922;6.988;2022-11-06T01:08:47;3.40;;;2.83;;
10170;SDS011;5127;50.922;6.988;2022-11-06T01:11:15;6.17;;;2.90;;
10170;SDS011;5127;50.922;6.988;2022-11-06T01:13:45;3.53;;;2.67;;
10170;SDS011;5127;50.922;6.988;2022-11-06T01:16:14;3.10;;;2.63;;
10170;SDS011;5127;50.922;6.988;2022-11-06T01:18:42;6.57;;;3.10;;
10170;SDS011;5127;50.922;6.988;2022-11-06T01:21:12;4.20;;;2.83;;
10170;SDS011;5127;50.922;6.988;2022-11-06T01:23:42;4.07;;;3.10;;
10170;SDS011;5127;50.922;6.988;2022-11-06T01:26:10;4.30;;;2.77;;
10170;SDS011;5127;50.922;6.988;2022-11-06T01:28:38;4.37;;;2.60;;
10170;SDS011;5127;50.922;6.988;2022-11-06T01:31:08;3.90;;;2.67;;
10170;SDS011;5127;50.922;6.988;2022-11-06T01:33:37;6.30;;;3.10;;
10170;SDS011;5127;50.922;6.988;2022-11-06T01:36:05;6.03;;;2.73;;
10170;SDS011;5127;50.922;6.988;2022-11-06T01:38:38;5.03;;;2.77;;
10170;SDS011;5127;50.922;6.988;2022-11-06T01:41:06;3.47;;;2.63;;
10170;SDS011;5127;50.922;6.988;2022-11-06T01:43:44;3.93;;;2.80;;
10170;SDS011;5127;50.922;6.988;2022-11-06T01:46:13;3.33;;;2.57;;
10170;SDS011;5127;50.922;6.988;2022-11-06T01:48:41;4.17;;;2.33;;
10170;SDS011;5127;50.922;6.988;2022-11-06T01:51:14;3.00;;;2.47;;
10170;SDS011;5127;50.922;6.988;2022-11-06T01:53:44;4.07;;;2.57;;
10170;SDS011;5127;50.922;6.988;2022-11-06T01:56:11;3.60;;;2.27;;
10170;SDS011;5127;50.922;6.988;2022-11-06T01:58:41;4.27;;;2.37;;
10170;SDS011;5127;50.922;6.988;2022-11-06T02:01:11;3.37;;;2.73;;
10170;SDS011;5127;50.922;6.988;2022-11-06T02:03:40;5.47;;;2.67;;
10170;SDS011;5127;50.922;6.988;2022-11-06T02:06:12;3.87;;;2.53;;
10170;SDS011;5127;50.922;6.988;2022-11-06T02:08:40;5.23;;;2.77;;
10170;SDS011;5127;50.922;6.988;2022-11-06T02:11:09;4.37;;;2.67;;
10170;SDS011;5127;50.922;6.988;2022-11-06T02:13:39;3.73;;;2.30;;
10170;SDS011;5127;50.922;6.988;2022-11-06T02:16:15;3.20;;;2.50;;
10170;SDS011;5127;50.922;6.988;2022-11-06T02:18:54;3.00;;;1.97;;
10170;SDS011;5127;50.922;6.988;2022-11-06T02:21:48;5.03;;;2.33;;
10170;SDS011;5127;50.922;6.988;2022-11-06T02:24:29;4.87;;;2.23;;
10170;SDS011;5127;50.922;6.988;2022-11-06T02:27:09;4.90;;;2.27;;
10170;SDS011;5127;50.922;6.988;2022-11-06T02:29:43;4.03;;;2.30;;
10170;SDS011;5127;50.922;6.988;2022-11-06T02:32:15;3.03;;;2.10;;
10170;SDS011;5127;50.922;6.988;2022-11-06T02:34:46;5.10;;;2.60;;
10170;SDS011;5127;50.922;6.988;2022-11-06T02:37:17;4.47;;;2.47;;
10170;SDS011;5127;50.922;6.988;2022-11-06T02:39:46;3.90;;;2.60;;
10170;SDS011;5127;50.922;6.988;2022-11-06T02:42:18;3.23;;;1.97;;
10170;SDS011;5127;50.922;6.988;2022-11-06T02:44:46;4.30;;;2.20;;
10170;SDS011;5127;50.922;6.988;2022-11-06T02:47:17;4.90;;;2.27;;
10170;SDS011;5127;50.922;6.988;2022-11-06T02:49:48;3.53;;;2.23;;
10170;SDS011;5127;50.922;6.988;2022-11-06T02:52:18;3.33;;;2.00;;
10170;SDS011;5127;50.922;6.988;2022-11-06T02:54:49;3.50;;;2.20;;
10170;SDS011;5127;50.922;6.988;2022-11-06T02:57:22;1.70;;;1.60;;
10170;SDS011;5127;50.922;6.988;2022-11-06T02:59:53;2.83;;;1.87;;
10170;SDS011;5127;50.922;6.988;2022-11-06T03:02:28;3.50;;;2.17;;
10170;SDS011;5127;50.922;6.988;2022-11-06T03:04:59;3.83;;;2.30;;
10170;SDS011;5127;50.922;6.988;2022-11-06T03:07:33;2.30;;;1.80;;
10170;SDS011;5127;50.922;6.988;2022-11-06T03:10:03;3.37;;;2.20;;
10170;SDS011;5127;50.922;6.988;2022-11-06T03:12:35;3.80;;;1.90;;
10170;SDS011;5127;50.922;6.988;2022-11-06T03:15:11;2.80;;;2.03;;
10170;SDS011;5127;50.922;6.988;2022-11-06T03:17:45;3.30;;;2.10;;
10170;SDS011;5127;50.922;6.988;2022-11-06T03:20:17;3.23;;;1.63;;
10170;SDS011;5127;50.922;6.988;2022-11-06T03:22:49;4.57;;;1.90;;
10170;SDS011;5127;50.922;6.988;2022-11-06T03:25:22;5.97;;;2.37;;
10170;SDS011;5127;50.922;6.988;2022-11-06T03:27:57;4.23;;;1.90;;
10170;SDS011;5127;50.922;6.988;2022-11-06T03:30:28;3.20;;;1.80;;
10170;SDS011;5127;50.922;6.988;2022-11-06T03:32:59;5.13;;;1.80;;
10170;SDS011;5127;50.922;6.988;2022-11-06T03:35:36;4.57;;;1.70;;
10170;SDS011;5127;50.922;6.988;2022-11-06T03:38:08;3.83;;;1.90;;
10170;SDS011;5127;50.922;6.988;2022-11-06T03:40:40;3.53;;;1.80;;
10170;SDS011;5127;50.922;6.988;2022-11-06T03:43:13;3.30;;;1.67;;
10170;SDS011;5127;50.922;6.988;2022-11-06T03:45:44;3.13;;;1.80;;
10170;SDS011;5127;50.922;6.988;2022-11-06T03:48:13;4.37;;;1.80;;
10170;SDS011;5127;50.922;6.988;2022-11-06T03:50:49;3.67;;;1.93;;
10170;SDS011;5127;50.922;6.988;2022-11-06T03:53:24;4.93;;;1.73;;
10170;SDS011;5127;50.922;6.988;2022-11-06T03:55:58;3.57;;;1.90;;
10170;SDS011;5127;50.922;6.988;2022-11-06T03:58:30;4.00;;;1.93;;
10170;SDS011;5127;50.922;6.988;2022-11-06T04:01:02;2.93;;;1.73;;
10170;SDS011;5127;50.922;6.988;2022-11-06T04:03:34;2.70;;;1.60;;
10170;SDS011;5127;50.922;6.988;2022-11-06T04:06:06;2.97;;;1.50;;
10170;SDS011;5127;50.922;6.988;2022-11-06T04:08:37;5.40;;;1.70;;
10170;SDS011;5127;50.922;6.988;2022-11-06T04:11:26;2.87;;;1.80;;
10170;SDS011;5127;50.922;6.988;2022-11-06T04:14:14;4.37;;;1.90;;
10170;SDS011;5127;50.922;6.988;2022-11-06T04:16:45;3.23;;;1.47;;
10170;SDS011;5127;50.922;6.988;2022-11-06T04:19:16;4.30;;;1.90;;
10170;SDS011;5127;50.922;6.988;2022-11-06T04:21:52;5.67;;;1.90;;
10170;SDS011;5127;50.922;6.988;2022-11-06T04:24:31;3.67;;;1.50;;
10170;SDS011;5127;50.922;6.988;2022-11-06T04:27:25;3.20;;;1.53;;
10170;SDS011;5127;50.922;6.988;2022-11-06T04:30:04;2.03;;;1.40;;
10170;SDS011;5127;50.922;6.988;2022-11-06T04:32:37;1.63;;;1.37;;
10170;SDS011;5127;50.922;6.988;2022-11-06T04:35:14;3.07;;;1.27;;
10170;SDS011;5127;50.922;6.988;2022-11-06T04:37:51;3.67;;;1.53;;
10170;SDS011;5127;50.922;6.988;2022-11-06T04:40:25;3.60;;;1.73;;
10170;SDS011;5127;50.922;6.988;2022-11-06T04:42:57;2.63;;;1.30;;
10170;SDS011;5127;50.922;6.988;2022-11-06T04:45:29;1.80;;;1.33;;
10170;SDS011;5127;50.922;6.988;2022-11-06T04:48:00;3.73;;;1.50;;
10170;SDS011;5127;50.922;6.988;2022-11-06T04:50:29;3.70;;;1.67;;
10170;SDS011;5127;50.922;6.988;2022-11-06T04:53:01;2.83;;;1.57;;
10170;SDS011;5127;50.922;6.988;2022-11-06T04:55:30;5.13;;;1.60;;
10170;SDS011;5127;50.922;6.988;2022-11-06T04:57:57;4.30;;;1.70;;
10170;SDS011;5127;50.922;6.988;2022-11-06T05:00:24;3.50;;;1.53;;
10170;SDS011;5127;50.922;6.988;2022-11-06T05:02:53;5.17;;;1.70;;
10170;SDS011;5127;50.922;6.988;2022-11-06T05:05:20;3.97;;;1.50;;
10170;SDS011;5127;50.922;6.988;2022-11-06T05:07:48;2.37;;;1.37;;
10170;SDS011;5127;50.922;6.988;2022-11-06T05:10:15;2.47;;;1.57;;
10170;SDS011;5127;50.922;6.988;2022-11-06T05:12:42;3.97;;;1.50;;
10170;SDS011;5127;50.922;6.988;2022-11-06T05:15:09;3.13;;;1.40;;
10170;SDS011;5127;50.922;6.988;2022-11-06T05:17:36;2.47;;;1.77;;
10170;SDS011;5127;50.922;6.988;2022-11-06T05:20:06;2.80;;;1.47;;
10170;SDS011;5127;50.922;6.988;2022-11-06T05:22:33;2.90;;;1.67;;
10170;SDS011;5127;50.922;6.988;2022-11-06T05:25:22;4.23;;;1.70;;
10170;SDS011;5127;50.922;6.988;2022-11-06T05:27:50;3.10;;;1.30;;
10170;SDS011;5127;50.922;6.988;2022-11-06T05:30:17;5.60;;;1.50;;
10170;SDS011;5127;50.922;6.988;2022-11-06T05:32:44;4.00;;;1.67;;
10170;SDS011;5127;50.922;6.988;2022-11-06T05:35:13;2.70;;;1.50;;
10170;SDS011;5127;50.922;6.988;2022-11-06T05:37:40;2.40;;;1.50;;
10170;SDS011;5127;50.922;6.988;2022-11-06T05:40:07;3.00;;;1.60;;
10170;SDS011;5127;50.922;6.988;2022-11-06T05:42:36;3.53;;;1.47;;
10170;SDS011;5127;50.922;6.988;2022-11-06T05:45:03;3.10;;;1.30;;
10170;SDS011;5127;50.922;6.988;2022-11-06T05:47:31;2.80;;;1.60;;
10170;SDS011;5127;50.922;6.988;2022-11-06T05:49:59;4.67;;;1.47;;
10170;SDS011;5127;50.922;6.988;2022-11-06T05:52:28;3.30;;;1.30;;
10170;SDS011;5127;50.922;6.988;2022-11-06T05:54:55;1.87;;;1.40;;
10170;SDS011;5127;50.922;6.988;2022-11-06T05:57:22;3.33;;;1.27;;
10170;SDS011;5127;50.922;6.988;2022-11-06T05:59:50;2.93;;;1.40;;
10170;SDS011;5127;50.922;6.988;2022-11-06T06:02:17;2.97;;;1.43;;
10170;SDS011;5127;50.922;6.988;2022-11-06T06:04:44;3.23;;;1.60;;
10170;SDS011;5127;50.922;6.988;2022-11-06T06:07:12;3.37;;;1.30;;
10170;SDS011;5127;50.922;6.988;2022-11-06T06:09:40;3.10;;;1.10;;
10170;SDS011;5127;50.922;6.988;2022-11-06T06:12:08;2.20;;;1.30;;
10170;SDS011;5127;50.922;6.988;2022-11-06T06:14:38;4.30;;;1.47;;
10170;SDS011;5127;50.922;6.988;2022-11-06T06:17:05;3.80;;;1.30;;
10170;SDS011;5127;50.922;6.988;2022-11-06T06:19:32;4.67;;;1.40;;
10170;SDS011;5127;50.922;6.988;2022-11-06T06:22:00;3.03;;;1.40;;
10170;SDS011;5127;50.922;6.988;2022-11-06T06:24:27;2.60;;;1.20;;
10170;SDS011;5127;50.922;6.988;2022-11-06T06:26:55;3.27;;;1.43;;
10170;SDS011;5127;50.922;6.988;2022-11-06T06:29:23;3.37;;;1.40;;
10170;SDS011;5127;50.922;6.988;2022-11-06T06:31:50;1.97;;;1.37;;
10170;SDS011;5127;50.922;6.988;2022-11-06T06:34:17;2.73;;;1.40;;
10170;SDS011;5127;50.922;6.988;2022-11-06T06:36:47;1.70;;;1.30;;
10170;SDS011;5127;50.922;6.988;2022-11-06T06:39:15;2.33;;;1.37;;
10170;SDS011;5127;50.922;6.988;2022-11-06T06:41:42;4.50;;;1.17;;
10170;SDS011;5127;50.922;6.988;2022-11-06T06:44:10;2.67;;;1.40;;
10170;SDS011;5127;50.922;6.988;2022-11-06T06:46:38;3.00;;;1.20;;
10170;SDS011;5127;50.922;6.988;2022-11-06T06:49:05;2.90;;;1.30;;
10170;SDS011;5127;50.922;6.988;2022-11-06T06:51:33;4.33;;;1.27;;
10170;SDS011;5127;50.922;6.988;2022-11-06T06:54:00;4.70;;;1.70;;
10170;SDS011;5127;50.922;6.988;2022-11-06T06:56:27;1.43;;;1.23;;
10170;SDS011;5127;50.922;6.988;2022-11-06T06:58:54;3.47;;;1.57;;
10170;SDS011;5127;50.922;6.988;2022-11-06T07:01:23;4.33;;;1.47;;
10170;SDS011;5127;50.922;6.988;2022-11-06T07:03:50;2.27;;;1.07;;
10170;SDS011;5127;50.922;6.988;2022-11-06T07:06:17;3.13;;;1.37;;
10170;SDS011;5127;50.922;6.988;2022-11-06T07:08:45;1.87;;;1.43;;
10170;SDS011;5127;50.922;6.988;2022-11-06T07:11:12;1.50;;;1.40;;
10170;SDS011;5127;50.922;6.988;2022-11-06T07:13:39;3.60;;;1.73;;
10170;SDS011;5127;50.922;6.988;2022-11-06T07:16:07;3.60;;;1.53;;
10170;SDS011;5127;50.922;6.988;2022-11-06T07:18:37;5.60;;;1.43;;
10170;SDS011;5127;50.922;6.988;2022-11-06T07:21:05;2.10;;;1.30;;
10170;SDS011;5127;50.922;6.988;2022-11-06T07:23:34;1.70;;;1.23;;
10170;SDS011;5127;50.922;6.988;2022-11-06T07:26:02;2.97;;;1.20;;
10170;SDS011;5127;50.922;6.988;2022-11-06T07:28:29;2.60;;;1.23;;
10170;SDS011;5127;50.922;6.988;2022-11-06T07:30:57;2.97;;;1.40;;
10170;SDS011;5127;50.922;6.988;2022-11-06T07:33:25;3.63;;;1.50;;
10170;SDS011;5127;50.922;6.988;2022-11-06T07:35:54;3.30;;;1.50;;
10170;SDS011;5127;50.922;6.988;2022-11-06T07:38:21;3.77;;;1.50;;
10170;SDS011;5127;50.922;6.988;2022-11-06T07:40:48;2.33;;;1.60;;
10170;SDS011;5127;50.922;6.988;2022-11-06T07:43:15;4.37;;;1.57;;
10170;SDS011;5127;50.922;6.988;2022-11-06T07:45:43;4.17;;;1.60;;
10170;SDS011;5127;50.922;6.988;2022-11-06T07:48:11;3.47;;;1.50;;
10170;SDS011;5127;50.922;6.988;2022-11-06T07:50:38;4.37;;;1.50;;
10170;SDS011;5127;50.922;6.988;2022-11-06T07:53:06;2.67;;;1.80;;
10170;SDS011;5127;50.922;6.988;2022-11-06T07:55:34;5.50;;;1.80;;
10170;SDS011;5127;50.922;6.988;2022-11-06T07:58:01;3.07;;;1.67;;
10170;SDS011;5127;50.922;6.988;2022-11-06T08:00:28;5.73;;;1.60;;
10170;SDS011;5127;50.922;6.988;2022-11-06T08:02:55;4.13;;;1.57;;
10170;SDS011;5127;50.922;6.988;2022-11-06T08:05:22;2.97;;;1.63;;
10170;SDS011;5127;50.922;6.988;2022-11-06T08:07:54;4.40;;;1.60;;
10170;SDS011;5127;50.922;6.988;2022-11-06T08:10:23;3.57;;;1.63;;
10170;SDS011;5127;50.922;6.988;2022-11-06T08:12:50;2.53;;;1.30;;
10170;SDS011;5127;50.922;6.988;2022-11-06T08:15:17;4.60;;;1.40;;
10170;SDS011;5127;50.922;6.988;2022-11-06T08:17:45;2.17;;;1.20;;
10170;SDS011;5127;50.922;6.988;2022-11-06T08:20:12;3.47;;;1.47;;
10170;SDS011;5127;50.922;6.988;2022-11-06T08:22:39;5.20;;;1.60;;
10170;SDS011;5127;50.922;6.988;2022-11-06T08:25:07;4.63;;;1.30;;
10170;SDS011;5127;50.922;6.988;2022-11-06T08:27:36;4.13;;;1.57;;
10170;SDS011;5127;50.922;6.988;2022-11-06T08:30:04;4.40;;;1.53;;
10170;SDS011;5127;50.922;6.988;2022-11-06T08:32:32;2.63;;;1.47;;
10170;SDS011;5127;50.922;6.988;2022-11-06T08:34:59;6.20;;;1.40;;
10170;SDS011;5127;50.922;6.988;2022-11-06T08:37:26;3.27;;;1.67;;
10170;SDS011;5127;50.922;6.988;2022-11-06T08:39:53;2.63;;;1.60;;
10170;SDS011;5127;50.922;6.988;2022-11-06T08:42:20;3.10;;;1.23;;
10170;SDS011;5127;50.922;6.988;2022-11-06T08:44:49;2.63;;;1.50;;
10170;SDS011;5127;50.922;6.988;2022-11-06T08:47:16;3.23;;;1.40;;
10170;SDS011;5127;50.922;6.988;2022-11-06T08:49:44;4.63;;;1.73;;
10170;SDS011;5127;50.922;6.988;2022-11-06T08:52:11;5.67;;;1.87;;
10170;SDS011;5127;50.922;6.988;2022-11-06T08:54:38;4.87;;;1.60;;
10170;SDS011;5127;50.922;6.988;2022-11-06T08:57:05;5.27;;;1.80;;
10170;SDS011;5127;50.922;6.988;2022-11-06T08:59:32;2.23;;;1.63;;
10170;SDS011;5127;50.922;6.988;2022-11-06T09:02:01;4.87;;;1.40;;
10170;SDS011;5127;50.922;6.988;2022-11-06T09:04:28;3.13;;;1.80;;
10170;SDS011;5127;50.922;6.988;2022-11-06T09:06:55;2.10;;;1.50;;
10170;SDS011;5127;50.922;6.988;2022-11-06T09:09:23;2.37;;;1.53;;
10170;SDS011;5127;50.922;6.988;2022-11-06T09:11:56;4.13;;;1.70;;
10170;SDS011;5127;50.922;6.988;2022-11-06T09:14:23;3.50;;;1.67;;
10170;SDS011;5127;50.922;6.988;2022-11-06T09:16:51;3.73;;;1.53;;
10170;SDS011;5127;50.922;6.988;2022-11-06T09:19:20;4.13;;;1.90;;
10170;SDS011;5127;50.922;6.988;2022-11-06T09:21:47;5.03;;;1.70;;
10170;SDS011;5127;50.922;6.988;2022-11-06T09:24:14;2.40;;;1.57;;
10170;SDS011;5127;50.922;6.988;2022-11-06T09:26:41;3.40;;;1.50;;
10170;SDS011;5127;50.922;6.988;2022-11-06T09:29:09;2.60;;;1.60;;
10170;SDS011;5127;50.922;6.988;2022-11-06T09:31:36;4.33;;;1.70;;
10170;SDS011;5127;50.922;6.988;2022-11-06T09:34:03;4.03;;;1.73;;
10170;SDS011;5127;50.922;6.988;2022-11-06T09:36:32;2.37;;;1.80;;
10170;SDS011;5127;50.922;6.988;2022-11-06T09:38:59;2.87;;;1.53;;
10170;SDS011;5127;50.922;6.988;2022-11-06T09:41:27;2.60;;;1.70;;
10170;SDS011;5127;50.922;6.988;2022-11-06T09:44:05;4.47;;;1.70;;
10170;SDS011;5127;50.922;6.988;2022-11-06T09:46:44;5.53;;;1.67;;
10170;SDS011;5127;50.922;6.988;2022-11-06T09:49:15;2.83;;;1.80;;
10170;SDS011;5127;50.922;6.988;2022-11-06T09:51:49;4.87;;;1.73;;
10170;SDS011;5127;50.922;6.988;2022-11-06T09:54:21;7.73;;;2.20;;
10170;SDS011;5127;50.922;6.988;2022-11-06T09:56:53;4.33;;;1.90;;
10170;SDS011;5127;50.922;6.988;2022-11-06T09:59:25;3.03;;;1.87;;
10170;SDS011;5127;50.922;6.988;2022-11-06T10:01:53;4.77;;;2.10;;
10170;SDS011;5127;50.922;6.988;2022-11-06T10:04:31;4.10;;;1.90;;
10170;SDS011;5127;50.922;6.988;2022-11-06T10:07:09;5.07;;;2.00;;
10170;SDS011;5127;50.922;6.988;2022-11-06T10:09:47;3.33;;;1.87;;
10170;SDS011;5127;50.922;6.988;2022-11-06T10:12:15;2.70;;;1.90;;
10170;SDS011;5127;50.922;6.988;2022-11-06T10:14:52;5.07;;;2.10;;
10170;SDS011;5127;50.922;6.988;2022-11-06T10:17:29;3.73;;;1.83;;
10170;SDS011;5127;50.922;6.988;2022-11-06T10:20:08;3.03;;;1.80;;
10170;SDS011;5127;50.922;6.988;2022-11-06T10:22:46;3.43;;;2.10;;
10170;SDS011;5127;50.922;6.988;2022-11-06T10:25:25;3.87;;;2.17;;
10170;SDS011;5127;50.922;6.988;2022-11-06T10:28:08;3.57;;;2.00;;
10170;SDS011;5127;50.922;6.988;2022-11-06T10:30:48;3.50;;;1.90;;
10170;SDS011;5127;50.922;6.988;2022-11-06T10:33:27;4.93;;;1.93;;
10170;SDS011;5127;50.922;6.988;2022-11-06T10:36:08;3.03;;;2.23;;
10170;SDS011;5127;50.922;6.988;2022-11-06T10:38:40;2.73;;;1.80;;
10170;SDS011;5127;50.922;6.988;2022-11-06T10:41:13;3.37;;;2.27;;
10170;SDS011;5127;50.922;6.988;2022-11-06T10:43:45;3.37;;;1.83;;
10170;SDS011;5127;50.922;6.988;2022-11-06T10:46:17;2.87;;;1.73;;
10170;SDS011;5127;50.922;6.988;2022-11-06T10:48:50;3.80;;;1.80;;
10170;SDS011;5127;50.922;6.988;2022-11-06T10:51:26;2.67;;;1.73;;
10170;SDS011;5127;50.922;6.988;2022-11-06T10:54:10;3.90;;;1.97;;
10170;SDS011;5127;50.922;6.988;2022-11-06T10:56:50;3.63;;;1.80;;
10170;SDS011;5127;50.922;6.988;2022-11-06T10:59:30;3.27;;;1.70;;
10170;SDS011;5127;50.922;6.988;2022-11-06T11:01:58;3.57;;;1.80;;
10170;SDS011;5127;50.922;6.988;2022-11-06T11:04:25;3.00;;;1.90;;
10170;SDS011;5127;50.922;6.988;2022-11-06T11:06:52;4.03;;;2.20;;
10170;SDS011;5127;50.922;6.988;2022-11-06T11:09:27;3.73;;;1.87;;
10170;SDS011;5127;50.922;6.988;2022-11-06T11:11:56;3.90;;;2.00;;
10170;SDS011;5127;50.922;6.988;2022-11-06T11:14:24;2.93;;;1.80;;
10170;SDS011;5127;50.922;6.988;2022-11-06T11:16:52;3.60;;;2.00;;
10170;SDS011;5127;50.922;6.988;2022-11-06T11:19:22;2.03;;;1.83;;
10170;SDS011;5127;50.922;6.988;2022-11-06T11:21:51;3.37;;;1.80;;
10170;SDS011;5127;50.922;6.988;2022-11-06T11:24:20;2.70;;;1.97;;
10170;SDS011;5127;50.922;6.988;2022-11-06T11:26:49;2.03;;;1.60;;
10170;SDS011;5127;50.922;6.988;2022-11-06T11:29:21;2.67;;;1.90;;
10170;SDS011;5127;50.922;6.988;2022-11-06T11:31:51;2.13;;;1.70;;
10170;SDS011;5127;50.922;6.988;2022-11-06T11:34:21;2.53;;;1.70;;
10170;SDS011;5127;50.922;6.988;2022-11-06T11:36:53;3.70;;;1.70;;
10170;SDS011;5127;50.922;6.988;2022-11-06T11:39:29;2.20;;;1.97;;
10170;SDS011;5127;50.922;6.988;2022-11-06T11:42:16;2.63;;;1.87;;
10170;SDS011;5127;50.922;6.988;2022-11-06T11:45:05;4.33;;;1.80;;
10170;SDS011;5127;50.922;6.988;2022-11-06T11:47:42;3.03;;;1.80;;
10170;SDS011;5127;50.922;6.988;2022-11-06T11:50:26;2.23;;;1.70;;
10170;SDS011;5127;50.922;6.988;2022-11-06T11:52:56;4.10;;;1.90;;
10170;SDS011;5127;50.922;6.988;2022-11-06T11:55:27;2.03;;;1.60;;
10170;SDS011;5127;50.922;6.988;2022-11-06T11:57:58;4.20;;;2.17;;
10170;SDS011;5127;50.922;6.988;2022-11-06T12:00:26;2.60;;;1.73;;
10170;SDS011;5127;50.922;6.988;2022-11-06T12:02:55;4.27;;;1.77;;
10170;SDS011;5127;50.922;6.988;2022-11-06T12:05:27;2.70;;;1.80;;
10170;SDS011;5127;50.922;6.988;2022-11-06T12:07:59;1.57;;;1.47;;
10170;SDS011;5127;50.922;6.988;2022-11-06T12:10:27;3.60;;;2.00;;
10170;SDS011;5127;50.922;6.988;2022-11-06T12:12:59;4.10;;;1.67;;
10170;SDS011;5127;50.922;6.988;2022-11-06T12:15:31;2.27;;;1.67;;
10170;SDS011;5127;50.922;6.988;2022-11-06T12:18:08;3.03;;;1.50;;
10170;SDS011;5127;50.922;6.988;2022-11-06T12:20:39;2.90;;;1.40;;
10170;SDS011;5127;50.922;6.988;2022-11-06T12:23:11;1.73;;;1.23;;
10170;SDS011;5127;50.922;6.988;2022-11-06T12:25:41;3.83;;;1.57;;
10170;SDS011;5127;50.922;6.988;2022-11-06T12:28:15;3.10;;;1.40;;
10170;SDS011;5127;50.922;6.988;2022-11-06T12:30:45;4.17;;;1.40;;
10170;SDS011;5127;50.922;6.988;2022-11-06T12:33:25;4.77;;;1.63;;
10170;SDS011;5127;50.922;6.988;2022-11-06T12:35:56;4.47;;;1.77;;
10170;SDS011;5127;50.922;6.988;2022-11-06T12:38:29;2.07;;;1.50;;
10170;SDS011;5127;50.922;6.988;2022-11-06T12:41:02;3.20;;;1.70;;
10170;SDS011;5127;50.922;6.988;2022-11-06T12:43:37;2.30;;;1.60;;
10170;SDS011;5127;50.922;6.988;2022-11-06T12:49:02;4.60;;;1.30;;
10170;SDS011;5127;50.922;6.988;2022-11-06T12:51:47;3.13;;;1.30;;
10170;SDS011;5127;50.922;6.988;2022-11-06T12:54:34;2.67;;;1.40;;
10170;SDS011;5127;50.922;6.988;2022-11-06T12:57:08;2.43;;;1.30;;
10170;SDS011;5127;50.922;6.988;2022-11-06T12:59:46;1.70;;;1.30;;
10170;SDS011;5127;50.922;6.988;2022-11-06T13:02:29;2.87;;;1.60;;
10170;SDS011;5127;50.922;6.988;2022-11-06T13:05:14;1.30;;;1.10;;
10170;SDS011;5127;50.922;6.988;2022-11-06T13:10:44;1.37;;;1.10;;
10170;SDS011;5127;50.922;6.988;2022-11-06T13:13:23;2.67;;;1.30;;
10170;SDS011;5127;50.922;6.988;2022-11-06T13:16:00;2.17;;;1.10;;
10170;SDS011;5127;50.922;6.988;2022-11-06T13:18:36;2.80;;;1.40;;
10170;SDS011;5127;50.922;6.988;2022-11-06T13:21:09;2.13;;;1.10;;
10170;SDS011;5127;50.922;6.988;2022-11-06T13:23:41;2.30;;;1.20;;
10170;SDS011;5127;50.922;6.988;2022-11-06T13:26:15;1.83;;;1.10;;
10170;SDS011;5127;50.922;6.988;2022-11-06T13:28:47;3.17;;;1.20;;
10170;SDS011;5127;50.922;6.988;2022-11-06T13:31:24;1.83;;;1.27;;
10170;SDS011;5127;50.922;6.988;2022-11-06T13:33:56;1.97;;;1.17;;
10170;SDS011;5127;50.922;6.988;2022-11-06T13:36:25;1.73;;;1.13;;
10170;SDS011;5127;50.922;6.988;2022-11-06T13:38:57;4.20;;;1.30;;
10170;SDS011;5127;50.922;6.988;2022-11-06T13:41:30;1.10;;;1.00;;
10170;SDS011;5127;50.922;6.988;2022-11-06T13:44:00;1.53;;;1.00;;
10170;SDS011;5127;50.922;6.988;2022-11-06T13:46:33;2.93;;;1.07;;
10170;SDS011;5127;50.922;6.988;2022-11-06T13:49:08;1.90;;;0.97;;
10170;SDS011;5127;50.922;6.988;2022-11-06T13:51:44;1.70;;;1.00;;
10170;SDS011;5127;50.922;6.988;2022-11-06T13:54:20;1.73;;;1.00;;
10170;SDS011;5127;50.922;6.988;2022-11-06T13:56:58;3.13;;;1.20;;
10170;SDS011;5127;50.922;6.988;2022-11-06T13:59:57;1.60;;;0.97;;
10170;SDS011;5127;50.922;6.988;2022-11-06T14:02:40;0.93;;;0.93;;
10170;SDS011;5127;50.922;6.988;2022-11-06T14:08:13;1.10;;;0.93;;
10170;SDS011;5127;50.922;6.988;2022-11-06T14:10:48;1.57;;;0.73;;
10170;SDS011;5127;50.922;6.988;2022-11-06T14:13:23;1.47;;;0.90;;
10170;SDS011;5127;50.922;6.988;2022-11-06T14:16:00;1.17;;;0.70;;
10170;SDS011;5127;50.922;6.988;2022-11-06T14:18:31;1.23;;;0.80;;
10170;SDS011;5127;50.922;6.988;2022-11-06T14:23:52;1.03;;;0.80;;
10170;SDS011;5127;50.922;6.988;2022-11-06T14:26:36;0.93;;;0.70;;
10170;SDS011;5127;50.922;6.988;2022-11-06T14:32:31;0.93;;;0.83;;
10170;SDS011;5127;50.922;6.988;2022-11-06T14:38:16;1.37;;;0.83;;
10170;SDS011;5127;50.922;6.988;2022-11-06T14:40:57;0.80;;;0.73;;
10170;SDS011;5127;50.922;6.988;2022-11-06T14:43:25;1.90;;;1.00;;
10170;SDS011;5127;50.922;6.988;2022-11-06T14:45:55;0.60;;;0.60;;
10170;SDS011;5127;50.922;6.988;2022-11-06T14:48:26;1.70;;;1.00;;
10170;SDS011;5127;50.922;6.988;2022-11-06T14:50:56;3.47;;;1.30;;
10170;SDS011;5127;50.922;6.988;2022-11-06T14:53:28;2.33;;;1.47;;
10170;SDS011;5127;50.922;6.988;2022-11-06T14:55:59;2.73;;;1.60;;
10170;SDS011;5127;50.922;6.988;2022-11-06T14:58:28;1.43;;;1.20;;
10170;SDS011;5127;50.922;6.988;2022-11-06T15:00:58;2.50;;;1.47;;
10170;SDS011;5127;50.922;6.988;2022-11-06T15:03:33;2.53;;;1.50;;
10170;SDS011;5127;50.922;6.988;2022-11-06T15:06:05;3.13;;;1.47;;
10170;SDS011;5127;50.922;6.988;2022-11-06T15:08:54;1.93;;;1.30;;
10170;SDS011;5127;50.922;6.988;2022-11-06T15:17:19;1.63;;;0.93;;
10170;SDS011;5127;50.922;6.988;2022-11-06T15:19:49;1.03;;;0.97;;
10170;SDS011;5127;50.922;6.988;2022-11-06T15:22:27;1.70;;;1.10;;
10170;SDS011;5127;50.922;6.988;2022-11-06T15:25:00;1.20;;;0.83;;
10170;SDS011;5127;50.922;6.988;2022-11-06T15:27:37;2.13;;;0.97;;
10170;SDS011;5127;50.922;6.988;2022-11-06T15:30:12;2.13;;;1.10;;
10170;SDS011;5127;50.922;6.988;2022-11-06T15:32:41;2.20;;;1.30;;
10170;SDS011;5127;50.922;6.988;2022-11-06T15:35:12;0.90;;;0.87;;
10170;SDS011;5127;50.922;6.988;2022-11-06T15:37:44;2.47;;;1.30;;
10170;SDS011;5127;50.922;6.988;2022-11-06T15:40:24;1.60;;;1.03;;
10170;SDS011;5127;50.922;6.988;2022-11-06T15:42:55;0.93;;;0.90;;
10170;SDS011;5127;50.922;6.988;2022-11-06T15:45:26;3.97;;;1.13;;
10170;SDS011;5127;50.922;6.988;2022-11-06T15:47:55;1.23;;;1.13;;
10170;SDS011;5127;50.922;6.988;2022-11-06T15:50:25;2.50;;;1.10;;